Terminal Aerodrome Forecast
Issued by NWS Grand Forks, ND

Home | Current Version | Previous Version | Text Only | Print | Product List | Glossary On
Versions: 1 2 3 4 5 6 7 8 9 10 11 12 13 14 15 16 17 18 19
000
FTUS43 KFGF 281300 AAA
TAFFAR
TAF AMD
KFAR 281338Z 2814/2912 12006KT P6SM OVC035
      TEMPO 2814/2816 3SM -SN BKN015
     FM290000 16012KT P6SM OVC050=

USA.gov is the U.S. government's official web portal to all federal, state and local government web resources and services.